Time;durP1;ratioP1;P1;durP2;ratioP2;P2;SDS_P1;SDS_P2;PMS_P1;PMS_P2;Temp;Humidity;BMP_temperature;BMP_pressure;BME280_temperature;BME280_humidity;BME280_pressure;Samples;Min_cycle;Max_cycle;Signal;HPM_P1;HPM_P2
2023/02/26 00:01:27;;;;;;;3.55;0.93;;;;;;;3.61;67.67;99911.09;4993870;28;20129;-79
2023/02/26 00:03:56;;;;;;;6.22;1.27;;;;;;;3.57;67.35;99900.78;4976404;28;20050;-79
2023/02/26 00:06:24;;;;;;;3.67;1.38;;;;;;;3.52;68.12;99909.56;4993720;28;20058;-79
2023/02/26 00:08:52;;;;;;;1.70;1.00;;;;;;;3.49;68.17;99920.06;4993144;28;20109;-79
2023/02/26 00:11:21;;;;;;;3.58;1.40;;;;;;;3.46;67.90;99914.06;4993531;28;20058;-79
2023/02/26 00:13:48;;;;;;;7.63;1.20;;;;;;;3.41;67.66;99915.94;4993837;28;20062;-79
2023/02/26 00:16:23;;;;;;;2.60;1.20;;;;;;;3.34;66.52;99905.69;4993372;28;20580;-78
2023/02/26 00:18:51;;;;;;;2.47;1.15;;;;;;;3.32;68.23;99917.03;4975765;28;20060;-78
2023/02/26 00:21:19;;;;;;;4.97;1.50;;;;;;;3.29;68.03;99922.28;4993461;28;20100;-78
2023/02/26 00:23:45;;;;;;;5.78;1.45;;;;;;;3.24;68.05;99923.25;4993546;28;20054;-79
2023/02/26 00:26:12;;;;;;;4.05;1.20;;;;;;;3.22;68.21;99926.78;4992978;28;20064;-78
2023/02/26 00:28:39;;;;;;;3.83;1.23;;;;;;;3.18;68.06;99935.56;4993383;28;20105;-78
2023/02/26 00:31:07;;;;;;;3.30;1.15;;;;;;;3.15;68.32;99933.03;4993455;28;20054;-78
2023/02/26 00:33:34;;;;;;;5.97;1.20;;;;;;;3.11;67.96;99940.06;4993360;28;20050;-79
2023/02/26 00:36:27;;;;;;;4.45;1.30;;;;;;;3.03;66.11;99939.38;4992710;28;20510;-79
2023/02/26 00:38:54;;;;;;;4.40;1.10;;;;;;;3.04;68.36;99938.47;4993011;28;20125;-79
2023/02/26 00:41:21;;;;;;;6.28;1.33;;;;;;;3.00;68.10;99943.72;4992948;28;20404;-78
2023/02/26 00:43:48;;;;;;;3.40;0.90;;;;;;;2.96;68.84;99949.88;4993129;28;20558;-78
2023/02/26 00:46:33;;;;;;;4.10;1.10;;;;;;;2.94;68.57;99946.47;4992741;28;20125;-78
2023/02/26 00:49:43;;;;;;;4.35;1.42;;;;;;;2.90;66.39;99959.56;4992989;28;20129;-78
2023/02/26 00:52:18;;;;;;;6.15;1.52;;;;;;;2.90;67.78;99959.56;4939749;28;20079;-77
2023/02/26 00:54:44;;;;;;;7.18;1.42;;;;;;;2.87;68.48;99963.09;4992633;28;20263;-79
2023/02/26 00:57:11;;;;;;;4.07;0.90;;;;;;;2.84;68.22;99971.00;4991734;28;20060;-79
2023/02/26 00:59:37;;;;;;;3.10;0.95;;;;;;;2.81;68.17;99961.47;4993047;28;20050;-79
2023/02/26 01:02:04;;;;;;;3.38;1.35;;;;;;;2.78;68.46;99971.09;4992833;28;20179;-78
2023/02/26 01:04:31;;;;;;;5.03;1.35;;;;;;;2.74;68.59;99973.75;4992927;28;20062;-78
2023/02/26 01:06:57;;;;;;;4.28;1.10;;;;;;;2.71;68.73;99973.84;4991873;28;20491;-78
2023/02/26 01:09:32;;;;;;;5.78;1.25;;;;;;;2.69;68.52;99975.59;4992604;28;20050;-78
2023/02/26 01:12:03;;;;;;;4.65;0.93;;;;;;;2.67;68.86;99984.31;4975520;28;20054;-78
2023/02/26 01:14:31;;;;;;;2.92;1.15;;;;;;;2.67;68.76;99984.31;4992754;28;20149;-79
2023/02/26 01:17:20;;;;;;;3.20;0.90;;;;;;;2.63;67.27;99985.28;4973523;28;20050;-78
2023/02/26 01:19:54;;;;;;;3.97;1.50;;;;;;;2.64;67.92;99984.38;4992142;28;20051;-78
2023/02/26 01:22:41;;;;;;;4.47;1.10;;;;;;;2.62;67.14;99984.44;4992498;28;20094;-79
2023/02/26 01:25:15;;;;;;;3.33;1.08;;;;;;;2.65;68.70;99992.16;4991774;28;20419;-78
2023/02/26 01:27:41;;;;;;;2.97;1.13;;;;;;;2.68;70.05;99991.22;4991527;28;20137;-78
2023/02/26 01:30:09;;;;;;;1.98;1.48;;;;;;;2.69;69.95;99988.59;4992291;28;20061;-78
2023/02/26 01:32:52;;;;;;;3.85;1.13;;;;;;;2.70;67.96;99994.66;4992046;28;20141;-78
2023/02/26 01:35:43;;;;;;;1.67;1.00;;;;;;;2.72;68.56;99991.16;4974802;28;20050;-79
2023/02/26 01:38:24;;;;;;;1.63;0.90;;;;;;;2.72;67.81;99993.75;4991304;28;20414;-79
2023/02/26 01:41:05;;;;;;;5.60;1.40;;;;;;;2.72;67.25;99992.88;4992105;28;20093;-78
2023/02/26 01:43:35;;;;;;;4.80;1.60;;;;;;;2.73;68.31;100000.66;4992198;28;20066;-78
2023/02/26 01:46:17;;;;;;;3.53;1.08;;;;;;;2.68;66.78;99997.28;4991709;28;20466;-78
2023/02/26 01:48:55;;;;;;;3.33;0.90;;;;;;;2.66;67.13;99993.88;4991367;28;20076;-78
2023/02/26 01:51:46;;;;;;;2.85;1.15;;;;;;;2.63;66.70;99993.94;4974176;28;20052;-79
2023/02/26 01:54:15;;;;;;;1.27;0.80;;;;;;;2.64;68.67;100002.56;4986380;28;20054;-79
2023/02/26 01:56:44;;;;;;;2.28;0.90;;;;;;;2.60;68.30;99996.59;4991002;28;20046;-78
2023/02/26 01:59:14;;;;;;;4.20;1.30;;;;;;;2.56;68.00;99998.41;4991705;28;20050;-78
2023/02/26 02:01:42;;;;;;;4.90;0.82;;;;;;;2.54;68.67;99999.31;4991494;28;20459;-78
2023/02/26 02:04:14;;;;;;;4.00;1.00;;;;;;;2.49;66.94;100007.19;4991353;28;20058;-78
2023/02/26 02:06:42;;;;;;;;;;;;;;;2.46;66.01;100010.72;4991294;28;20088;-78
2023/02/26 02:09:09;;;;;;;1.45;0.70;;;;;;;2.43;68.61;100010.75;4991565;28;20040;-78
2023/02/26 02:12:04;;;;;;;2.35;0.90;;;;;;;2.36;66.72;100022.19;4991560;28;20054;-78
2023/02/26 02:14:44;;;;;;;1.95;1.27;;;;;;;2.33;67.38;100025.66;4991261;28;20274;-78
2023/02/26 02:17:31;;;;;;;4.57;1.08;;;;;;;2.26;66.52;100031.00;4991034;28;20054;-78
2023/02/26 02:20:21;;;;;;;4.90;0.90;;;;;;;2.22;67.67;100031.06;4991632;28;20558;-78
2023/02/26 02:22:48;;;;;;;4.53;0.98;;;;;;;2.20;68.79;100027.66;4955054;28;20069;-78
2023/02/26 02:26:08;;;;;;;2.22;0.95;;;;;;;2.14;66.33;100038.16;4971818;28;20436;-78
2023/02/26 02:29:05;;;;;;;6.00;0.93;;;;;;;2.12;66.86;100039.91;4971532;28;20089;-78
2023/02/26 02:31:42;;;;;;;3.88;1.00;;;;;;;2.10;66.64;100040.81;4972007;28;20054;-78
2023/02/26 02:34:20;;;;;;;3.67;0.70;;;;;;;2.09;67.53;100042.53;4971893;28;20219;-78
2023/02/26 02:37:01;;;;;;;3.63;1.00;;;;;;;2.07;67.67;100041.72;4953963;28;20072;-78
2023/02/26 02:39:42;;;;;;;4.93;0.80;;;;;;;2.05;67.22;100046.94;4971793;28;20059;-78
2023/02/26 02:42:34;;;;;;;4.20;0.90;;;;;;;2.05;66.88;100051.28;4971777;28;20047;-79
2023/02/26 02:45:18;;;;;;;3.38;0.90;;;;;;;2.03;66.70;100051.31;4971499;28;20121;-79
2023/02/26 02:47:51;;;;;;;2.13;0.80;;;;;;;2.02;68.05;100053.94;4971193;28;20089;-78
2023/02/26 02:50:37;;;;;;;3.17;1.10;;;;;;;1.98;66.34;100065.25;4971975;28;20400;-78
2023/02/26 02:53:12;;;;;;;3.67;0.80;;;;;;;1.97;67.56;100071.34;4971704;28;20077;-78
2023/02/26 02:55:48;;;;;;;2.47;0.90;;;;;;;1.93;67.06;100075.72;4971470;28;20047;-78
2023/02/26 02:58:24;;;;;;;2.60;0.80;;;;;;;1.91;66.87;100078.31;4971341;28;20082;-78
2023/02/26 03:00:56;;;;;;;2.17;0.80;;;;;;;1.89;67.70;100076.63;4971663;28;20058;-78
2023/02/26 03:03:54;;;;;;;4.63;1.00;;;;;;;1.84;65.98;100075.84;4971599;28;20492;-77
2023/02/26 03:06:20;;;;;;;3.72;1.10;;;;;;;1.85;68.54;100083.63;4971106;28;20055;-78
2023/02/26 03:08:48;;;;;;;3.58;0.90;;;;;;;1.83;68.59;100085.38;4971140;28;20061;-78
2023/02/26 03:11:15;;;;;;;3.38;0.70;;;;;;;1.81;68.55;100101.00;4971624;28;20125;-79
2023/02/26 03:13:43;;;;;;;1.95;0.85;;;;;;;1.78;68.55;100082.88;4971574;28;20047;-78
2023/02/26 03:16:24;;;;;;;3.17;1.02;;;;;;;1.75;66.88;100102.81;4971197;28;20125;-78
2023/02/26 03:19:22;;;;;;;4.47;1.25;;;;;;;1.74;66.14;100096.78;4972073;28;20105;-78
2023/02/26 03:21:55;;;;;;;3.65;1.00;;;;;;;1.76;66.76;100099.34;4975292;28;20050;-78
2023/02/26 03:24:37;;;;;;;3.22;0.82;;;;;;;1.73;66.67;100100.25;4975100;28;20508;-77
2023/02/26 03:27:13;;;;;;;2.65;0.82;;;;;;;1.74;67.92;100107.16;4974118;28;20051;-80
2023/02/26 03:29:48;;;;;;;2.65;0.90;;;;;;;1.73;67.36;100107.16;4974834;28;20047;-78
2023/02/26 03:32:23;;;;;;;4.95;1.10;;;;;;;1.73;68.13;100113.22;4975054;28;20058;-78
2023/02/26 03:35:00;;;;;;;1.58;0.75;;;;;;;1.73;67.54;100114.97;4974745;28;20151;-78
2023/02/26 03:37:36;;;;;;;5.10;0.65;;;;;;;1.72;66.79;100115.84;4957042;28;20109;-78
2023/02/26 03:40:10;;;;;;;4.63;1.38;;;;;;;1.73;68.10;100120.16;4974959;28;20055;-78
2023/02/26 03:42:46;;;;;;;3.00;0.75;;;;;;;1.74;68.73;100129.63;4975104;28;20054;-78
2023/02/26 03:45:18;;;;;;;2.25;0.80;;;;;;;1.74;69.03;100127.91;4974469;28;20051;-78
2023/02/26 03:47:48;;;;;;;1.55;0.70;;;;;;;1.75;69.21;100133.97;4974177;28;20054;-78
2023/02/26 03:50:21;;;;;;;2.08;0.98;;;;;;;1.74;68.04;100137.41;4974488;28;20496;-78
2023/02/26 03:52:49;;;;;;;4.07;1.25;;;;;;;1.75;69.29;100133.97;4957468;28;20055;-78
2023/02/26 03:55:21;;;;;;;2.92;0.95;;;;;;;1.73;68.74;100143.50;4974265;28;20484;-78
2023/02/26 03:57:48;;;;;;;2.10;0.85;;;;;;;1.72;68.99;100142.63;4973949;28;20053;-78
2023/02/26 04:00:16;;;;;;;3.08;0.85;;;;;;;1.71;68.73;100153.06;4974441;28;20050;-78
2023/02/26 04:02:53;;;;;;;2.92;0.80;;;;;;;1.68;67.23;100153.94;4957283;28;20492;-78
2023/02/26 04:05:25;;;;;;;5.65;1.20;;;;;;;1.65;68.01;100156.59;4974268;28;20077;-78
2023/02/26 04:07:52;;;;;;;2.93;0.63;;;;;;;1.64;68.87;100160.91;4974437;28;20154;-78
2023/02/26 04:10:24;;;;;;;1.52;0.65;;;;;;;1.62;68.23;100154.03;4974211;28;20047;-78
2023/02/26 04:12:50;;;;;;;2.15;0.80;;;;;;;1.61;68.95;100163.53;4974311;28;20066;-78
2023/02/26 04:15:17;;;;;;;2.08;0.68;;;;;;;1.58;68.77;100163.59;4973736;28;20125;-78
2023/02/26 04:17:43;;;;;;;4.43;1.25;;;;;;;1.58;69.03;100178.31;4956501;28;20061;-78
2023/02/26 04:20:10;;;;;;;1.38;0.73;;;;;;;1.56;69.25;100176.59;4974169;28;20054;-78
2023/02/26 04:22:37;;;;;;;2.40;0.85;;;;;;;1.55;68.95;100180.06;4974160;28;20050;-77
2023/02/26 04:25:04;;;;;;;6.38;1.10;;;;;;;1.54;69.13;100182.69;4973663;28;20059;-78
2023/02/26 04:27:31;;;;;;;4.30;1.17;;;;;;;1.53;69.01;100187.00;4956410;28;20117;-78
2023/02/26 04:29:57;;;;;;;3.58;1.17;;;;;;;1.52;69.22;100195.66;4972918;28;20054;-78
2023/02/26 04:32:23;;;;;;;4.70;0.90;;;;;;;1.51;68.91;100193.09;4973917;28;20050;-79
2023/02/26 04:34:50;;;;;;;2.75;1.15;;;;;;;1.50;68.32;100194.81;4973454;28;20043;-79
2023/02/26 04:37:17;;;;;;;1.65;0.75;;;;;;;1.48;68.71;100203.50;4973415;28;20055;-78
2023/02/26 04:39:43;;;;;;;4.30;1.05;;;;;;;1.46;68.71;100205.28;4973762;28;20047;-78
2023/02/26 04:42:10;;;;;;;3.25;1.20;;;;;;;1.42;68.99;100205.28;4973778;28;20451;-78
2023/02/26 04:44:36;;;;;;;3.63;0.90;;;;;;;1.40;69.21;100211.38;4973558;28;20065;-79
2023/02/26 04:47:03;;;;;;;3.20;0.80;;;;;;;1.39;69.09;100215.69;4972937;28;20090;-77
2023/02/26 04:49:30;;;;;;;5.47;0.70;;;;;;;1.37;68.63;100217.47;4973882;28;20051;-79
2023/02/26 04:51:56;;;;;;;2.05;1.00;;;;;;;1.35;69.04;100223.56;4973554;28;20050;-78
2023/02/26 04:54:23;;;;;;;2.60;0.82;;;;;;;1.34;69.02;100217.50;4973610;28;20089;-78
2023/02/26 04:56:49;;;;;;;2.65;0.73;;;;;;;1.33;69.21;100220.97;4972764;28;20055;-78
2023/02/26 04:59:16;;;;;;;4.40;0.90;;;;;;;1.33;69.00;100226.16;4973711;28;20059;-79
2023/02/26 05:01:42;;;;;;;3.22;0.93;;;;;;;1.32;68.80;100223.56;4973474;28;20055;-79
2023/02/26 05:04:09;;;;;;;2.05;0.80;;;;;;;1.30;69.58;100228.78;4973444;28;20046;-78
2023/02/26 05:06:36;;;;;;;3.88;1.10;;;;;;;1.30;69.19;100231.38;4986240;28;20523;-78
2023/02/26 05:09:03;;;;;;;2.90;0.93;;;;;;;1.28;69.02;100226.19;4992423;28;20072;-79
2023/02/26 05:11:29;;;;;;;2.58;0.82;;;;;;;1.27;69.13;100236.63;4992565;28;20057;-78
2023/02/26 05:13:56;;;;;;;3.13;0.80;;;;;;;1.26;69.09;100235.75;4992730;28;20053;-78
2023/02/26 05:16:22;;;;;;;2.88;0.95;;;;;;;1.24;68.67;100237.47;4992480;28;20046;-78
2023/02/26 05:18:49;;;;;;;1.88;0.80;;;;;;;1.24;68.80;100247.00;4992069;28;20051;-78
2023/02/26 05:21:16;;;;;;;2.15;0.70;;;;;;;1.21;69.09;100257.41;4992428;28;20054;-78
2023/02/26 05:23:42;;;;;;;2.35;1.17;;;;;;;1.20;69.26;100250.50;5011921;23;20054;-77
2023/02/26 05:26:09;;;;;;;4.57;0.80;;;;;;;1.19;68.99;100251.41;4972294;28;20054;-78
2023/02/26 05:28:36;;;;;;;3.25;0.70;;;;;;;1.15;69.24;100264.38;4972440;28;20085;-78
2023/02/26 05:31:03;;;;;;;1.90;0.82;;;;;;;1.13;69.33;100271.28;4971377;28;20385;-78
2023/02/26 05:33:30;;;;;;;1.85;0.80;;;;;;;1.15;69.82;100273.88;4973105;28;20134;-79
2023/02/26 05:35:57;;;;;;;1.27;0.70;;;;;;;1.14;69.28;100278.22;4972423;28;20062;-79
2023/02/26 05:38:23;;;;;;;5.40;1.00;;;;;;;1.13;69.38;100268.72;4972330;28;20073;-78
2023/02/26 05:40:50;;;;;;;7.10;0.85;;;;;;;1.13;69.23;100275.66;4972609;28;20159;-78
2023/02/26 05:43:16;;;;;;;3.30;1.50;;;;;;;1.11;69.54;100273.06;4970812;28;20088;-79
2023/02/26 05:45:43;;;;;;;2.20;0.90;;;;;;;1.11;69.67;100282.56;4972311;28;20141;-79
2023/02/26 05:48:10;;;;;;;2.90;1.15;;;;;;;1.09;70.19;100287.78;4972420;28;20583;-80
2023/02/26 05:50:36;;;;;;;4.75;0.70;;;;;;;1.09;69.63;100295.56;4972493;28;20530;-78
2023/02/26 05:53:03;;;;;;;3.35;0.80;;;;;;;1.10;69.38;100299.00;4972504;28;20058;-79
2023/02/26 05:55:29;;;;;;;1.95;0.95;;;;;;;1.07;69.84;100297.28;4971955;28;20046;-78
2023/02/26 05:57:56;;;;;;;2.85;0.88;;;;;;;1.07;69.69;100299.03;4971863;28;20818;-79
2023/02/26 06:00:22;;;;;;;1.70;0.90;;;;;;;1.06;70.11;100298.19;4971299;28;20403;-78
2023/02/26 06:02:49;;;;;;;2.63;0.70;;;;;;;1.05;69.64;100309.44;4972425;28;20054;-79
2023/02/26 06:05:15;;;;;;;4.95;0.98;;;;;;;1.06;69.77;100307.69;4972035;28;20105;-78
2023/02/26 06:07:42;;;;;;;3.67;0.70;;;;;;;1.03;69.61;100314.63;4971860;28;20055;-79
2023/02/26 06:10:09;;;;;;;3.05;0.82;;;;;;;1.04;69.65;100328.44;4972350;28;20130;-79
2023/02/26 06:12:37;;;;;;;2.40;0.75;;;;;;;1.03;69.93;100322.41;4972331;28;20047;-78
2023/02/26 06:15:04;;;;;;;5.60;1.48;;;;;;;1.03;70.11;100329.31;4972042;28;20407;-80
2023/02/26 06:17:31;;;;;;;2.40;0.85;;;;;;;1.03;69.88;100326.72;4971882;28;20061;-79
2023/02/26 06:19:58;;;;;;;3.60;1.05;;;;;;;1.03;70.33;100329.31;4972019;28;20065;-78
2023/02/26 06:22:25;;;;;;;7.75;1.48;;;;;;;1.03;69.80;100334.50;4972031;28;20093;-77
2023/02/26 06:24:53;;;;;;;2.13;1.13;;;;;;;1.02;69.93;100336.22;4971347;28;20061;-78
2023/02/26 06:27:21;;;;;;;4.03;1.15;;;;;;;1.01;69.84;100350.06;4970593;28;20054;-78
2023/02/26 06:29:48;;;;;;;5.38;1.20;;;;;;;1.01;70.14;100346.63;4972057;28;20058;-79
2023/02/26 06:32:14;;;;;;;2.90;0.80;;;;;;;1.00;69.63;100347.47;4971877;28;20058;-78
2023/02/26 06:34:41;;;;;;;7.78;1.20;;;;;;;1.00;70.25;100355.25;4972078;28;20059;-79
2023/02/26 06:37:07;;;;;;;5.03;1.63;;;;;;;1.00;70.38;100365.63;4971184;28;20061;-78
2023/02/26 06:39:34;;;;;;;5.55;1.17;;;;;;;1.00;69.60;100370.81;4971789;28;20533;-78
2023/02/26 06:42:00;;;;;;;4.75;1.33;;;;;;;0.99;70.42;100377.75;4971835;28;20086;-78
2023/02/26 06:44:27;;;;;;;3.58;1.10;;;;;;;0.98;69.82;100381.22;4971983;28;20054;-78
2023/02/26 06:46:54;;;;;;;3.25;1.00;;;;;;;0.98;70.11;100381.22;4970496;28;20137;-77
2023/02/26 06:49:20;;;;;;;6.18;1.08;;;;;;;0.98;70.04;100390.72;4969977;28;20101;-78
2023/02/26 06:51:47;;;;;;;3.95;1.15;;;;;;;0.96;70.09;100395.91;4970163;28;20062;-78
2023/02/26 06:54:13;;;;;;;4.22;1.35;;;;;;;0.97;70.32;100396.78;4971876;28;20570;-78
2023/02/26 06:56:40;;;;;;;3.88;1.02;;;;;;;0.97;70.52;100404.56;4974689;28;20077;-78
2023/02/26 06:59:06;;;;;;;3.55;1.00;;;;;;;0.97;70.66;100404.56;4975575;28;20130;-78
2023/02/26 07:01:33;;;;;;;8.68;1.02;;;;;;;0.96;70.25;100414.03;4975983;28;20094;-77
2023/02/26 07:03:59;;;;;;;7.30;0.98;;;;;;;0.97;70.33;100420.94;4974047;28;20503;-78
2023/02/26 07:06:26;;;;;;;4.65;1.15;;;;;;;0.97;70.23;100415.75;4973664;28;20123;-78
2023/02/26 07:08:54;;;;;;;6.28;1.05;;;;;;;0.98;70.37;100425.28;4973676;28;20054;-78
2023/02/26 07:11:21;;;;;;;2.42;0.95;;;;;;;1.00;71.11;100420.06;4974647;28;20062;-78
2023/02/26 07:13:48;;;;;;;2.63;0.95;;;;;;;1.02;70.54;100429.53;4975386;28;20137;-77
2023/02/26 07:16:14;;;;;;;2.42;1.30;;;;;;;1.03;70.43;100420.91;4974895;28;20062;-77
2023/02/26 07:18:41;;;;;;;2.80;0.90;;;;;;;1.06;70.93;100430.41;4973872;28;20497;-78
2023/02/26 07:21:07;;;;;;;6.07;1.13;;;;;;;1.08;70.81;100426.06;4974932;28;20054;-78
2023/02/26 07:23:34;;;;;;;7.63;1.10;;;;;;;1.10;70.66;100431.25;4969062;28;20149;-77
2023/02/26 07:26:01;;;;;;;3.40;0.90;;;;;;;1.11;70.90;100426.03;4993658;28;20050;-78
2023/02/26 07:28:27;;;;;;;4.97;1.00;;;;;;;1.14;70.68;100436.41;4993806;28;20058;-78
2023/02/26 07:30:55;;;;;;;3.75;1.30;;;;;;;1.16;70.75;100447.63;4994133;28;20058;-78
2023/02/26 07:33:22;;;;;;;4.18;1.10;;;;;;;1.20;70.83;100450.19;4993740;28;20749;-78
2023/02/26 07:35:48;;;;;;;2.67;1.25;;;;;;;1.21;70.75;100452.78;4993720;28;20057;-78
2023/02/26 07:38:15;;;;;;;6.20;1.38;;;;;;;1.24;70.72;100459.69;4993825;28;20138;-79
2023/02/26 07:40:44;;;;;;;3.65;1.17;;;;;;;1.27;70.94;100459.66;4994479;28;20054;-79
2023/02/26 07:43:11;;;;;;;5.25;1.50;;;;;;;1.30;70.71;100462.22;4976607;28;20050;-79
2023/02/26 07:45:38;;;;;;;5.18;1.20;;;;;;;1.32;71.43;100465.66;4975059;28;20551;-79
2023/02/26 07:48:04;;;;;;;3.75;1.27;;;;;;;1.34;71.24;100466.50;4992480;28;20554;-78
2023/02/26 07:50:32;;;;;;;6.60;1.30;;;;;;;1.37;70.93;100471.69;4992981;28;20082;-78
2023/02/26 07:52:59;;;;;;;1.88;1.00;;;;;;;1.40;71.14;100474.25;4992878;28;20046;-79
2023/02/26 07:55:26;;;;;;;3.08;1.15;;;;;;;1.42;71.21;100475.09;4976242;28;20057;-79
2023/02/26 07:57:53;;;;;;;5.18;1.48;;;;;;;1.46;71.20;100482.88;4976209;28;20466;-79
2023/02/26 08:00:20;;;;;;;4.63;1.20;;;;;;;1.49;71.54;100482.84;4992694;28;20491;-78
2023/02/26 08:02:46;;;;;;;2.97;0.98;;;;;;;1.54;71.30;100491.47;4992502;28;20137;-79
2023/02/26 08:05:13;;;;;;;3.85;1.15;;;;;;;1.58;71.60;100484.50;4993076;28;20100;-78
2023/02/26 08:07:40;;;;;;;3.58;1.40;;;;;;;1.61;71.71;100487.91;4993446;28;20392;-79
2023/02/26 08:10:07;;;;;;;7.07;1.63;;;;;;;1.64;71.28;100490.50;4993698;28;20050;-78
2023/02/26 08:12:33;;;;;;;3.22;1.27;;;;;;;1.68;71.74;100502.56;4993775;28;20051;-78
2023/02/26 08:15:00;;;;;;;4.00;1.70;;;;;;;1.72;71.28;100498.22;4976125;28;20348;-79
2023/02/26 08:17:27;;;;;;;5.43;1.27;;;;;;;1.76;70.92;100505.09;4976055;28;20495;-78
2023/02/26 08:19:53;;;;;;;7.60;1.10;;;;;;;1.81;71.55;100512.88;4976553;28;20137;-78
2023/02/26 08:22:20;;;;;;;3.78;1.55;;;;;;;1.85;71.37;100509.38;4976445;28;20414;-78
2023/02/26 08:24:47;;;;;;;6.32;1.10;;;;;;;1.89;71.74;100508.47;4993173;28;20050;-78
2023/02/26 08:27:14;;;;;;;4.10;1.02;;;;;;;1.93;71.49;100507.56;4993142;28;20046;-79
2023/02/26 08:29:41;;;;;;;8.07;1.60;;;;;;;1.98;71.12;100514.47;4993452;28;20065;-78
2023/02/26 08:32:08;;;;;;;3.13;1.13;;;;;;;2.03;71.34;100516.13;4993668;28;20061;-78
2023/02/26 08:34:34;;;;;;;5.88;1.13;;;;;;;2.05;70.95;100516.09;4993242;28;20125;-78
2023/02/26 08:37:01;;;;;;;4.22;1.10;;;;;;;2.11;71.46;100522.97;4992659;28;20088;-80
2023/02/26 08:39:31;;;;;;;3.90;0.95;;;;;;;2.15;71.43;100527.28;4993193;28;20051;-79
2023/02/26 08:41:58;;;;;;;2.55;1.25;;;;;;;2.19;71.29;100529.84;4993410;28;20149;-79
2023/02/26 08:44:24;;;;;;;5.40;1.20;;;;;;;2.24;71.13;100537.56;4993139;28;20053;-78
2023/02/26 08:46:51;;;;;;;4.18;1.50;;;;;;;2.28;70.78;100541.84;4992610;28;20141;-79
2023/02/26 08:49:17;;;;;;;3.30;1.02;;;;;;;2.33;70.41;100541.81;4993351;28;20058;-79
2023/02/26 08:51:44;;;;;;;3.35;1.35;;;;;;;2.37;70.84;100551.31;4975661;28;20495;-78
2023/02/26 08:54:11;;;;;;;2.40;1.02;;;;;;;2.40;70.69;100537.44;4993055;28;20050;-79
2023/02/26 08:56:37;;;;;;;5.20;1.00;;;;;;;2.45;70.46;100541.69;4992281;28;20108;-78
2023/02/26 08:59:04;;;;;;;3.78;1.15;;;;;;;2.48;70.73;100548.59;4992846;28;20085;-78
2023/02/26 09:01:31;;;;;;;4.25;1.10;;;;;;;2.54;70.40;100563.28;4992963;28;20146;-79
2023/02/26 09:03:57;;;;;;;8.93;1.33;;;;;;;2.59;70.54;100553.69;4992968;28;20058;-78
2023/02/26 09:06:24;;;;;;;3.05;1.13;;;;;;;2.64;70.44;100562.28;4992530;28;20144;-78
2023/02/26 09:08:51;;;;;;;4.80;1.50;;;;;;;2.69;70.25;100559.66;4992378;28;20042;-79
2023/02/26 09:11:17;;;;;;;6.22;1.60;;;;;;;2.73;70.09;100571.72;4992708;28;20050;-79
2023/02/26 09:13:44;;;;;;;2.50;1.00;;;;;;;2.78;70.29;100571.66;4975195;28;20077;-78
2023/02/26 09:16:11;;;;;;;2.55;1.02;;;;;;;2.83;70.26;100575.06;4991712;28;20051;-78
2023/02/26 09:18:37;;;;;;;3.78;1.10;;;;;;;2.87;70.17;100584.56;4992331;28;20046;-78
2023/02/26 09:21:04;;;;;;;1.45;0.70;;;;;;;2.94;70.60;100591.41;4992737;28;20046;-79
2023/02/26 09:23:30;;;;;;;3.65;1.00;;;;;;;2.97;70.21;100580.97;4992389;28;20141;-78
2023/02/26 09:25:57;;;;;;;3.65;1.00;;;;;;;3.03;70.04;100593.03;4991985;28;20050;-78
2023/02/26 09:28:25;;;;;;;5.93;1.10;;;;;;;3.09;70.09;100594.69;4991985;28;20470;-79
2023/02/26 09:30:53;;;;;;;5.18;0.98;;;;;;;3.16;70.17;100595.47;4992247;28;20483;-79
2023/02/26 09:33:21;;;;;;;1.60;0.95;;;;;;;3.21;70.41;100591.94;4992410;28;20046;-79
2023/02/26 09:35:49;;;;;;;2.55;0.80;;;;;;;3.28;69.48;100589.28;4991789;28;20133;-79
2023/02/26 09:38:16;;;;;;;3.60;1.42;;;;;;;3.33;69.32;100597.88;4974486;28;20518;-77
2023/02/26 09:40:49;;;;;;;3.22;1.02;;;;;;;3.36;66.66;100600.41;4992354;28;20660;-80
2023/02/26 09:43:53;;;;;;;2.95;0.90;;;;;;;3.39;65.56;100593.44;4992431;28;20046;-77
2023/02/26 09:46:28;;;;;;;;;;;;;;;3.49;64.78;100609.81;4992126;28;20058;-77
2023/02/26 09:49:03;;;;;;;2.15;0.75;;;;;;;3.54;65.96;100607.13;4991630;28;20327;-79
2023/02/26 09:51:32;;;;;;;2.80;1.00;;;;;;;3.59;68.57;100609.69;4992128;28;20058;-77
2023/02/26 09:54:01;;;;;;;0.73;0.70;;;;;;;3.63;68.73;100616.56;4992059;28;20097;-79
2023/02/26 09:56:35;;;;;;;1.50;1.00;;;;;;;3.65;67.18;100606.97;4991521;28;20047;-78
2023/02/26 09:59:02;;;;;;;2.55;0.80;;;;;;;3.71;69.08;100613.84;4992073;28;20133;-76
2023/02/26 10:01:32;;;;;;;1.75;0.70;;;;;;;3.76;66.98;100617.22;4991723;28;20141;-77
2023/02/26 10:04:21;;;;;;;2.97;0.80;;;;;;;3.80;66.09;100613.69;4992069;28;20082;-78
2023/02/26 10:07:13;;;;;;;5.93;1.27;;;;;;;3.88;66.16;100621.38;4990779;28;20129;-76
2023/02/26 10:09:56;;;;;;;3.33;0.70;;;;;;;3.97;66.75;100628.22;4972311;28;20054;-77
2023/02/26 10:12:26;;;;;;;3.28;1.25;;;;;;;4.06;67.97;100632.41;4991566;28;20046;-77
2023/02/26 10:15:12;;;;;;;5.50;0.98;;;;;;;4.14;65.03;100628.81;4991268;28;20050;-77
2023/02/26 10:17:41;;;;;;;2.80;0.93;;;;;;;4.25;67.64;100628.63;4991113;28;20586;-78
2023/02/26 10:20:16;;;;;;;2.13;0.60;;;;;;;4.35;66.53;100641.50;4991561;28;20072;-76
2023/02/26 10:23:05;;;;;;;5.55;0.90;;;;;;;4.46;64.78;100641.31;4991928;28;20050;-77
2023/02/26 10:26:05;;;;;;;1.80;0.70;;;;;;;4.57;64.63;100645.47;4991173;28;20081;-76
2023/02/26 10:28:47;;;;;;;2.05;0.60;;;;;;;4.71;65.00;100648.72;4989971;28;20582;-77
2023/02/26 10:31:34;;;;;;;1.38;0.80;;;;;;;4.82;65.72;100641.53;4991688;28;20054;-78
2023/02/26 10:34:29;;;;;;;3.50;0.65;;;;;;;4.97;66.02;100656.03;4991362;28;20085;-78
2023/02/26 10:37:19;;;;;;;1.20;0.45;;;;;;;5.14;65.67;100654.88;4981953;28;20622;-77
2023/02/26 10:39:58;;;;;;;6.22;0.77;;;;;;;5.34;70.00;100659.66;4991638;28;20051;-78
2023/02/26 10:42:30;;;;;;;4.38;0.70;;;;;;;5.49;68.48;100658.50;4991467;28;20065;-77
2023/02/26 10:45:08;;;;;;;1.27;0.63;;;;;;;5.65;65.41;100658.19;4991194;28;20050;-77
2023/02/26 10:47:34;;;;;;;2.15;0.60;;;;;;;5.84;69.27;100658.63;4990955;28;20050;-77
2023/02/26 10:50:13;;;;;;;2.00;0.90;;;;;;;5.92;64.00;100664.53;4974240;28;20050;-77
2023/02/26 10:52:42;;;;;;;1.90;0.52;;;;;;;6.05;67.06;100661.69;4973373;28;20137;-77
2023/02/26 10:55:26;;;;;;;3.05;1.25;;;;;;;6.11;60.08;100662.41;4990704;28;20158;-77
2023/02/26 10:58:04;;;;;;;3.90;1.17;;;;;;;6.22;62.72;100666.50;4990803;28;20081;-77
2023/02/26 11:00:34;;;;;;;2.25;0.80;;;;;;;6.33;67.11;100656.66;4991378;28;20051;-77
2023/02/26 11:03:03;;;;;;;2.60;0.90;;;;;;;6.44;66.70;100668.56;4973752;28;20491;-77
2023/02/26 11:05:31;;;;;;;2.70;0.93;;;;;;;6.54;66.29;100664.81;4990754;28;20058;-77
2023/02/26 11:08:27;;;;;;;2.33;0.82;;;;;;;6.62;61.21;100664.66;4990628;28;20543;-78
2023/02/26 11:10:59;;;;;;;1.67;0.77;;;;;;;6.73;63.79;100667.81;4991188;28;20476;-78
2023/02/26 11:13:29;;;;;;;2.65;0.60;;;;;;;6.82;64.52;100653.66;4974076;28;20096;-77
2023/02/26 11:16:02;;;;;;;3.13;0.98;;;;;;;6.90;63.41;100667.41;4990014;28;20090;-77
2023/02/26 11:18:37;;;;;;;3.95;0.80;;;;;;;6.94;63.95;100660.31;4990037;28;20058;-76
2023/02/26 11:21:05;;;;;;;1.73;0.70;;;;;;;6.98;64.62;100667.19;4990646;28;20863;-78
2023/02/26 11:26:13;;;;;;;1.80;0.80;;;;;;;7.02;60.86;100662.69;4968784;28;20062;-79
2023/02/26 11:28:48;;;;;;;2.50;0.70;;;;;;;7.08;59.95;100665.16;4963737;28;20058;-79
2023/02/26 11:31:18;;;;;;;2.13;0.70;;;;;;;7.18;63.45;100665.78;4982389;28;20157;-80
2023/02/26 11:33:50;;;;;;;5.05;0.90;;;;;;;7.26;60.86;100670.78;4972458;28;20094;-79
2023/02/26 11:36:19;;;;;;;1.50;0.75;;;;;;;7.35;62.70;100672.28;4980319;28;20046;-79
2023/02/26 11:38:52;;;;;;;4.15;1.10;;;;;;;7.35;59.40;100667.91;4987084;28;20185;-79
2023/02/26 11:41:19;;;;;;;;;;;;;;;7.36;58.89;100664.38;4981492;28;20562;-80
2023/02/26 11:43:49;;;;;;;2.30;0.68;;;;;;;7.35;61.40;100670.53;4972910;28;19926;-79
2023/02/26 11:46:15;;;;;;;2.25;1.00;;;;;;;7.34;63.90;100667.94;4955104;28;20039;-80
2023/02/26 11:48:46;;;;;;;2.28;0.95;;;;;;;7.39;63.21;100669.53;4980894;28;20047;-79
2023/02/26 11:51:17;;;;;;;1.70;0.90;;;;;;;7.61;67.10;100675.88;4985864;28;20074;-79
2023/02/26 11:53:51;;;;;;;3.45;1.08;;;;;;;7.90;63.69;100669.78;4994096;28;20528;-79
2023/02/26 11:56:40;;;;;;;2.88;0.73;;;;;;;8.32;62.37;100671.06;4986109;28;20474;-79
2023/02/26 11:59:18;;;;;;;1.80;0.95;;;;;;;8.71;59.54;100663.72;4957601;28;20141;-79